Kmdw taf.

data at: 2236 utc 18 dec 2022. kmdw 182153z 26012g20kt 10sm few020 m07/m12 a3020 rmk ao2 slp246 t10671122 $ kmdw 182053z 25013kt 10sm few022 m06/m12 a3018 rmk ao2 slp236 t10611117 53013 $ kmdw 181953z 25013kt 10sm few022 m07/m12 a3015 rmk ao2 slp228 t10671122 $ kmdw 181853z 25015g20kt 10sm few020 few095 m07/m12 a3014 …

Kmdw taf. Things To Know About Kmdw taf.

Study with Quizlet and memorize flashcards containing terms like 3462. (Refer to Figure 12.) Which of the reporting stations have VFR weather? A— All. B— KINK, KBOI, and KJFK. C— KINK, KBOI, and KLAX., 3463. For aviation purposes, ceiling is defined as the height above the Earth's surface of the A— lowest reported obscuration and the highest layer of clouds reported as overcast. B ...klot 141345z 02019g24kt 2 1/2sm -ra br ovc007 11/11 a2974 no taf found for klot. kmdw 141353z 05013g25kt 2 1/2sm -ra br bkn007 bkn011 ovc024 12/10 a2975 rmk ao2 pk wnd …Include TAF. Show METAR board. IDs: Search METAR Sites. ADDS Station Table. NCEI METAR Archive. Vietor Weather 2023 to obtain more information about this web site. Server ...METAR KMDW 121856Z AUTO 32005KT 1 1/2SM +RABR OVC007 17/16 A2980 5,180 pies. 5,800 pies. 5,880 pies. ¿Cuál es el pronóstico de turbulencia en el siguiente TAF?

Impacts TAF Board. TAF Home. Plot. Data. Board. Info. For situational awareness. Not to be used for flight planning purposes. IDs: KMDW - Chicago/Midway Intl, IL, US. Issued at 1720 UTC 29 Jan 2023. Updated at 2049 UTC 29 Jan 2023. Potential Impact: None: Slight: Moderate: High: Time 1953Z 29/21Z 29/22Z 29/23Z 30/00Z 30/01Zkmdw 111753z 25005kt 3sm -ra br bkn008 bkn016 ovc070 19/18 a3008 rmk ao2 slp179 bkn008 v sct p0005 60024 t01890178 10194 20167 55004 kmdw 111730z 1118/1224 28006kt 5sm -ra br bkn007 ovc012 fm112000 36007kt 5sm -ra br sct010 ovc020 fm120600 35011kt p6sm bkn015 fm121800 02010kt p6sm few020 bkn040 kmdw 111730z 1118/1224 …

KMDW - Chicago/Midway Intl, IL, US. Issued at 1120 UTC 11 Oct 2023. Updated at 1129 UTC 11 Oct 2023. Potential Impact. None. Slight. Moderate. High. NOTE: LAMP data beyond the time of the TAF data is denoted as LAMP in Type and colored magenta. Raw TAF. KMDW 111120Z 1112/1218 23005KT P6SM SCT100. FM112200 13006KT 6SM -SHRA SCT030 BKN050.

Flight plan departing from KMDW - Chicago Midway Intl, arriving at KBOS - General Edward Lawrence Logan Intl. Distance 748 nm / 1,386 km. Download for FSX, X-Plane, PMDG, Infinite Flight, PDF or other products. ... TAF. KMDW 200312Z 2003/2106 16009KT P6SM SCT080 OVC100 FM200800 20008KT P6SM SCT080 BKN200 TEMPO …Sep 27, 2023 · TAF ; NOTAM ; History ; Airport ; Statistics ... KMDW B) 2309261157 E) MDW RWY 13C/31C CLSD CANCELED September 26, 2023 06:57 - September 29, 2023 06:57 LT ... METAR Los Angeles International Airport - KLAX/LAX. Los Angeles International Airport is a large airport in California, United States. The airport is located at latitude 33.94312 and longitude -118.40880. The airport has 4 runways: 7L/25R, 6R/24L, 6L/24R and 7R/25L. The ICAO airport code of this field is KLAX.Oct 12, 2023 · Show TAF board. IDs: Page loaded: 08:03 UTC | 01:03 AM Pacific | 02:03 AM Mountain | 03:03 AM Central | 04:03 AM Eastern. Aviation Weather Center Homepage provides comprehensive user-friendly aviation weather Text products and graphics. kmdw 091253z 32005kt 10sm few030 few080 07/00 a2984 rmk ao2 slp109 t00720000 kmdw 091120z 0912/1018 32006kt p6sm sct080 fm091600 30011g17kt p6sm few050 few250 fm092300 28006kt p6sm sct200 fm101600 29012g18kt p6sm few050 few250 kmsp 091253z 32006kt 10sm few200 03/01 a2998 rmk ao2 slp156 t00330011

Oct 12, 2023 · TAF KADW 120900Z 1209/1315 VRB03KT 9999 SCT100 SCT250 QNH2988INS : Forecast period: 0900 to 1800 UTC 12 October 2023 Forecast type: FROM: standard forecast or significant change Winds: variable direction winds at 3 MPH (3 knots; 1.5 m/s) Visibility: 6 or more miles (10+ km) Ceiling: at least 12,000 feet AGL Clouds:

KMDW - Chicago/Midway Intl, IL, US Issued at 1120 UTC 11 Oct 2023 Updated at 1129 UTC 11 Oct 2023 Potential Impact None Slight Moderate High NOTE: LAMP data beyond the time of the TAF data is denoted as LAMP in Type and colored magenta. Raw TAF KMDW 111120Z 1112/1218 23005KT P6SM SCT100 FM112200 13006KT 6SM -SHRA SCT030 BKN050

KMDW (CHICAGO , IL, US) Text: KMDW 130910Z 1309/1412 09013G21KT P6SM BKN070 BKN150 : Forecast period: 0900 to 1500 UTC 13 October 2023 Forecast type: FROM: standard forecast or significant change Winds: from the E (90 degrees) at 15 MPH (13 knots; 6.7 m/s) gusting to 24 MPH (21 knots; 10.8 m/s) Visibility:Data at: 1101 UTC 11 Oct 2023. KMDW 111053Z 25005KT 10SM CLR 05/01 A2982 RMK AO2 SLP101 T00500006. KMDW 110853Z 1109/1212 24005KT P6SM FEW100. FM111900 23008KT P6SM VCSH SCT050 BKN100. FM112200 13006KT 6SM -SHRA SCT030 BKN050.Oct 5, 2023 · PHONE 773-884-4424. WX ASOS at DPA (16 nm W): PHONE 630-587-3668. CLASS B FREQS 120.55/306.925 FOR VFR AIRCRAFT REQUESTING TRAFFIC ADVISORIES OR TO TRANSITION CLASS B NORTH OF OHARE. CLASS B FREQS 133.5/349.0 FOR VFR AIRCRAFT REQUESTING TRAFFIC ADVISORIES OR TO TRANSITION CLASS B SOUTH OF OHARE. TAF for: KDEN (Denver Intl, CO, US) issued at 0212 UTC 13 Oct 2023: Text: KDEN 130212Z 1302/1406 36024G44KT P6SM VCSH SCT060 BKN080 BKN120 : Forecast period: 0200 to 0400 UTC 13 October 2023: Forecast type: FROM: standard forecast or significant change: Winds: from the N (360 degrees) at 28 MPH (24 knots; 12.3 m/s) gusting to 51 MPH (44 knots ...NOTE: LAMP data beyond the time of the TAF data is denoted as LAMP in Type and colored magenta. Raw TAF KMDW 190540Z 1906/2012 16005KT P6SM SCT100 BKN250 FM191100 19008KT 6SM -SHRA SCT050 OVC080 TEMPO 1914/1918 4SM RA BR SCT030 BKN050 FM191900 15012G20KT P6SM SCT070 OVC100 FM200000 14008KT P6SM BKN080 FM200800 20008KT P6SM SCT080 BKN250 METAR Board Radar Display Forecast DiscussionMETAR KMDW 121856Z AUTO 32005KT 1 1/2SM +RA BR OVC007 17/16 A2980 A. 5,880 feet B. 5,180 feet C. 5,800 feet 5. The body of a Terminal Aerodrome Forecast (TAF) covers a geographical proximity within a: A. 5 statute mile radius from the center of an airport runway complex. B. 5 nautical mile radius of the center of an airport.

Study with Quizlet and memorize flashcards containing terms like What is meant by the term 'dewpoint'?, When the phrase "light and variable" is used in reference to a winds-aloft forecast, the coded group and wind-speed is, What is the valid period for the TAF for KMEM? KMEM 1217207Z 1218/1318 20012KT 5SM HZ BKN030 FM122200 33015G20KT P6SM BKN015 OVC025 PROB40 1222/1302 3SM SHRA FM130200 ...AVIATION WEATHER CENTER. This site is changing on October 16, 2023. Preview the new site at Beta.AviationWeather.gov. SCN23-79: Upgrade of Aviation Weather Center Website. TAFs.Raw TAF KMDW 182320Z 1900/2006 29015G25KT 6SM -SHSN BKN035 FM190200 30012G18KT P6SM SCT035 FM190900 29009KT P6SM SKC FM191500 26012G18KT P6SM SKC METAR Board Radar Display Forecast Discussion. For situational awareness. Not to be used for flight planning purposes.METAR KLAX 121852Z 25004KT 6SM BR SCT007 SCT250 16/15 A2991. SPECI KMDW 121856Z 32005KT 1 ½SM RA OVC007 17/16 A2980 RMKRAB35. SPECI KJFK 121853Z 18004KT 1/2SM FG R04/2200 OVC005 20/18 A3006. What are the current conditions depicted for Chicago Midway Airport (KMDW) Definition. Meteorological Aerodrome Reports (METAR), Terminal Area Forecasts (TAF), SIGMET and Notices to Airmen (NOTAM) of all airports in the world. Decoded and visual. Metar & TafTAF for: KMDW (Chicago/Midway Intl, IL, US) issued at 0853 UTC 11 Oct 2023: Text: KMDW 110853Z 1109/1212 24005KT P6SM FEW100 : Forecast period: 0900 to 1900 UTC 11 October 2023: Forecast type: FROM: standard forecast or significant change: Winds: from the WSW (240 degrees) at 6 MPH (5 knots; 2.6 m/s) Visibility: 6 or more sm (10+ km) Ceiling:

KMDW - Chicago/Midway Intl, IL, US. Issued at 0530 UTC 05 Jul 2023. Updated at 0806 UTC 05 Jul 2023. Potential Impact: None: Slight: Moderate: High: Time 0753Z 05/09Z 05/10Z 05/11Z 05/12Z 05/13Z ... NOTE: LAMP data beyond the time of the TAF data is denoted as LAMP in Type and colored magenta.

TAF for: KMDW (Chicago/Midway Intl, IL, US) issued at 0853 UTC 11 Oct 2023: Text: KMDW 110853Z 1109/1212 24005KT P6SM FEW100 : Forecast period: …Weather radar, wind and waves forecast for kiters, surfers, paragliders, pilots, sailors and anyone else. Worldwide animated weather map, with easy to use layers and precise spot forecast. METAR, TAF and NOTAMs for any airport in the World. SYNOP codes from weather stations and buoys. Forecast models ECMWF, GFS, NAM and NEMSovercast at 2,000 feet during the forecast period between 2200Z and 2400Z. (Refer to Figure 18.) According to the Weather Depiction Chart, the weather for a flight from southern Michigan to north Indiana is ceilings. greater than 3, 000 feet and visibility greater than 5 miles. What should pilots state initially when telephoning a weather ... METAR KMDW 040453Z 14003KT 10SM BKN110 BKN140 08/02 A2996 RMK AO2 SLP146 T00830022. The wind is from direction 140° with a speed of 3 kt. Visibility is 10 mi. The ceiling, broken or more, is 11,000 ft. The temperature is 8 …kmdw 091253z 32005kt 10sm few030 few080 07/00 a2984 rmk ao2 slp109 t00720000 kmdw 091120z 0912/1018 32006kt p6sm sct080 fm091600 30011g17kt p6sm few050 few250 fm092300 28006kt p6sm sct200 fm101600 29012g18kt p6sm few050 few250 kmsp 091253z 32006kt 10sm few200 03/01 a2998 rmk ao2 slp156 t00330011Study with Quizlet and memorize flashcards containing terms like What is meant by the term 'dewpoint'?, When the phrase "light and variable" is used in reference to a winds-aloft forecast, the coded group and wind-speed is, What is the valid period for the TAF for KMEM? KMEM 1217207Z 1218/1318 20012KT 5SM HZ BKN030 FM122200 33015G20KT P6SM BKN015 OVC025 PROB40 1222/1302 3SM SHRA FM130200 ...klot 141345z 02019g24kt 2 1/2sm -ra br ovc007 11/11 a2974 no taf found for klot. kmdw 141353z 05013g25kt 2 1/2sm -ra br bkn007 bkn011 ovc024 12/10 a2975 rmk ao2 pk wnd 04029/1343 slp072 p0003 t01170100 $ kmdw 141307z 1413/1518 05019g30kt 4sm -ra br bkn007 ovc012 tempo 1413/1415 1 1/2sm ra br fm141600 04019g30kt 5sm -shra sct007 ovc014 ...Make your Flight Plan at SkyVector.com. SkyVector is a free online flight planner. Flight planning is easy on our large collection of Aeronautical Charts, including Sectional Charts, Approach Plates, IFR Enroute Charts, and Helicopter route charts. Weather data is always current, as are Jet Fuel Prices and avgas 100ll prices.

KMDW - Chicago/Midway Intl, IL, US. Issued at 2321 UTC 10 Oct 2023. Updated at 2349 UTC 10 Oct 2023. Potential Impact. None. Slight. Moderate. High. NOTE: LAMP data beyond the time of the TAF data is denoted as LAMP in Type and colored magenta. Raw TAF. KMDW 102321Z 1100/1206 25006KT P6SM SCT080. FM111800 23008KT P6SM VCSH SCT050 BKN100.

Flight plan departing from KLGA - La Guardia, arriving at KMDW - Chicago Midway Intl. Distance 635 nm / 1,176 km. Download for FSX, X-Plane, PMDG, Infinite Flight ...

KMDW (CHICAGO , IL, US) Text: KMDW 282320Z 2900/3006 04009KT P6SM BKN200 : Forecast period: 0000 to 0300 UTC 29 May 2023 Forecast type: FROM: standard forecast or significant change Winds: from the NE (40 degrees) at 10 MPH (9 knots; 4.6 m/s) Visibility: 6 or more miles (10+ km) Ceiling: 20000 feet AGLSky 700 feet overcast, visibility 1-1/2 SM, rain. (Refer to Figure 14.) The base and tops of the overcast layer reported by a pilot are. 505 feet AGL. (Refer to Figure 14.) The wind and temperature at 12,000 feet MSL as reported by a pilot are. 080 degrees at 21 knots and -7 degrees C. (Refer to Figure 14.)Impacts TAF Board. TAF Home. Plot. Data. Board. Info. For situational awareness. Not to be used for flight planning purposes. IDs: KMDW - Chicago/Midway Intl, IL, US. Issued at …SPECI KMDW 121856Z 32005KT I 1/2SM RA OVCOO7 17/16 A2980 RMK RA835 METAR or SPECI identifies as normal or special. KMDW -4 letter identifier. I 21 856Z - Date and time {in UTC} issued. 32005KT - Surface winds 320 degrees true, 5 knots. I 1/2SM - one and one half statute miles visibility. RA - two letter code depicting rain. OVCOO7 - SkyStudy with Quizlet and memorize flashcards containing terms like 1179. Which statement is true concerning ASOS/AWOS weather reporting systems?, 1180. (Refer to Figure 12.) The wind direction and velocity at KJFK is from:, 1181. (Refer to Figure 12.) what are the current conditions for Chicago Midway Airport (KMDW)? and more.METAR KMDW 051653Z 18017G29KT 10SM FEW180 BKN250 24/03 A3004 RMK AO2 PK WND 18029/1646 SLP165 T02390033. The wind is from direction 180° with a speed of 17 kt. Visibility is 10 mi. The ceiling, broken or more, is 25,000 ft. The temperature and wind chill are 24 °C.METAR Los Angeles International Airport - KLAX/LAX. Los Angeles International Airport is a large airport in California, United States. The airport is located at latitude 33.94312 and longitude -118.40880. The airport has 4 runways: 7L/25R, 6R/24L, 6L/24R and 7R/25L. The ICAO airport code of this field is KLAX.130 knots. (Refer to figure 20 on page 338, and figure 12 on page 339) what is the height of the tropopause over Kentucky. FL 340. Study Flashcards On Instrument 9 at Cram.com. Quickly memorize the terms, phrases and much more. Cram.com makes it easy to get the grade you want!

METAR Charlotte/Douglas International Airport - KCLT/CLT. Charlotte/Douglas International Airport is a large airport in North Carolina, United States. The airport is located at latitude 35.21382 and longitude -80.94851. The airport has 4 runways: 18C/36C, 5/23, 18L/36R and 18R/36L.KMDW - Chicago/Midway Intl, IL, US. Issued at 0540 UTC 18 Sep 2023. Updated at 0757 UTC 18 Sep 2023. NOTE: LAMP data beyond the time of the TAF data is denoted as LAMP in Type and colored magenta. Raw TAF. KMDW 180540Z 1806/1912 34005KT P6SM SCT050. FM182000 11006KT P6SM SCT060. METAR Board. Radar Display. Forecast Discussion.Key to Aerodrome Forecast (TAF) and Aviation Routine Weather Report (METAR) (Front) U.S. Department of Transportation Federal Aviation Administration KEY to AERODROME FORECAST (TAF) and AVIATION ROUTINE WEATHER REPORT (METAR) (FRONT) TAF KPIT 091730Z 091818 15005KT 5SM HZ FEW020 WS010/31022KT FM 1930 30015G25KT 3SM SHRA OVC015 TEMPO 2022 1/2SM ...Instagram:https://instagram. square d schneider electric 50a 2 pole ho breaker hom250ctaino symbols tattooshow do i find my walgreens balance rewards numbercould not open device 69877 1015 users online KMDW Chicago Midway International Airport Chicago, Illinois, USA GOING TO CHICAGO? Reserve a Hotel Room FAA INFORMATION EFFECTIVE 05 OCTOBER 2023 Location Airport Operations Airport Communications Nearby radio navigation aids Airport Services Runway Information Runway 13C/31C Runway 4R/22L Runway 4L/22R Runway 13L/31RRaw TAF KMDW 171720Z 1718/1824 28018G29KT P6SM OVC020 FM172200 28019G29KT P6SM SCT025 BKN035 TEMPO 1804/1808 -SN BKN030 FM181500 29018G28KT P6SM -SHSN SCT030 OVC040 METAR Board Radar Display Forecast Discussion. For situational awareness. Not to be used for flight planning purposes. yorkie poodle haircutsmoza racing coupon code NOTE: LAMP data beyond the time of the TAF data is denoted as LAMP in Type and colored magenta. Raw TAF KMDW 190540Z 1906/2012 16005KT P6SM SCT100 BKN250 FM191100 19008KT 6SM -SHRA SCT050 OVC080 TEMPO 1914/1918 4SM RA BR SCT030 BKN050 FM191900 15012G20KT P6SM SCT070 OVC100 FM200000 14008KT P6SM BKN080 FM200800 20008KT P6SM SCT080 BKN250 METAR Board Radar Display Forecast DiscussionJul 30, 2013 · The remarks section for KMDW has RAB35 listed. This entry means rain began at 1835Z. 3467. (Refer to figure 12.) ... In the TAF from KOKC, the "FM (FROM) Group" is ... spiritual mages Oct 11, 2023 · AVIATION WEATHER CENTER. This site is changing on October 16, 2023. Preview the new site at Beta.AviationWeather.gov. SCN23-79: Upgrade of Aviation Weather Center Website. TAFs. METAR Home. Plot. Data. Board. Info. IDs: Format: Raw Decoded Include TAF. Data at: 1956 UTC 22 Sep 2023. KGUS 221855Z 11008KT 10SM FEW180 BKN200 27/12 A3013 RMK AO2A SLP202 WND DATA ESTMD T02740122 $. KGUS 221755Z 13012KT 10SM SCT190 SCT220 28/13 A3014 RMK AO2A SLP205 WND DATA ESTMD T02760128 10278 20151 57017 $. No guarantee of current accuracy is given. Airport information for Chicago Midway Intl (KMDW) in , including runways, map, navaids, weather (METAR/TAF) and ATC …